createdAt,value
2023-02-02T05:28:58.266Z,99939.69
2023-02-02T05:33:01.429Z,99939.69
2023-02-02T05:37:04.123Z,99947.19
2023-02-02T05:41:07.149Z,99950.97
2023-02-02T05:45:10.474Z,99959.88
2023-02-02T05:49:14.504Z,99955.72
2023-02-02T05:53:17.259Z,99965.41
2023-02-02T05:57:20.247Z,99962.41
2023-02-02T06:01:22.968Z,99959.69
2023-02-02T06:05:26.622Z,99971.06
2023-02-02T06:09:29.724Z,99963.25
2023-02-02T06:13:33.552Z,99963.47
2023-02-02T06:17:37.149Z,99980.97
2023-02-02T06:21:49.741Z,99983.13
2023-02-02T06:25:55.461Z,99999.50
2023-02-02T06:30:00.312Z,99990.50
2023-02-02T06:34:03.042Z,99981.53
2023-02-02T06:38:06.038Z,99993.63
2023-02-02T06:42:20.448Z,99996.13
2023-02-02T06:46:24.636Z,100005.50
2023-02-02T06:50:29.959Z,100000.50
2023-02-02T06:54:37.542Z,99995.06
2023-02-02T06:58:40.226Z,100009.09
2023-02-02T07:02:49.043Z,100021.44
2023-02-02T07:06:52.449Z,100020.53
2023-02-02T07:11:13.201Z,100032.06
2023-02-02T07:15:19.456Z,100039.53
2023-02-02T07:19:23.203Z,100025.12
2023-02-02T07:23:28.184Z,100023.94
2023-02-02T07:28:05.991Z,100026.69
2023-02-02T07:32:11.183Z,100031.94
2023-02-02T07:36:21.059Z,100043.00
2023-02-02T07:40:33.288Z,100053.69
2023-02-02T07:44:38.595Z,100054.94
2023-02-02T07:48:42.078Z,100064.94
2023-02-02T07:52:56.896Z,100061.75
2023-02-02T08:01:27.306Z,100060.41
2023-02-02T08:05:36.345Z,100051.84
2023-02-02T08:10:01.410Z,100059.41
2023-02-02T08:14:23.692Z,100073.06
2023-02-02T08:18:33.466Z,100077.13
2023-02-02T08:22:41.193Z,100077.28
2023-02-02T08:26:48.249Z,100096.19
2023-02-02T08:30:56.044Z,100110.31
2023-02-02T08:35:33.173Z,100101.28
2023-02-02T08:39:48.470Z,100105.22
2023-02-02T08:44:02.059Z,100102.66
2023-02-02T08:48:51.826Z,100109.78
2023-02-02T08:53:14.580Z,100098.56
2023-02-02T08:57:25.607Z,100112.50
2023-02-02T09:01:55.052Z,100100.81
2023-02-02T09:06:15.193Z,100107.38
2023-02-02T09:10:19.009Z,100118.28
2023-02-02T09:14:23.099Z,100117.97
2023-02-02T09:18:26.205Z,100126.44
2023-02-02T09:22:38.468Z,100136.00
2023-02-02T09:26:55.399Z,100142.09
2023-02-02T09:31:11.336Z,100145.63
2023-02-02T09:35:14.919Z,100132.13
2023-02-02T09:39:23.550Z,100139.84
2023-02-02T09:48:32.340Z,100143.19
2023-02-02T09:53:07.854Z,100148.69
2023-02-02T09:57:49.349Z,100136.81
2023-02-02T10:01:57.411Z,100142.06
2023-02-02T10:06:15.054Z,100145.63
2023-02-02T10:10:42.408Z,100138.19
2023-02-02T10:15:41.043Z,100134.63
2023-02-02T10:19:53.527Z,100128.91
2023-02-02T10:24:01.969Z,100134.94
2023-02-02T10:28:23.190Z,100127.28
2023-02-02T10:32:39.336Z,100127.31
2023-02-02T10:37:15.117Z,100127.91
2023-02-02T10:41:33.855Z,100129.34
2023-02-02T10:45:47.967Z,100132.09
2023-02-02T10:50:21.549Z,100128.25
2023-02-02T10:54:56.407Z,100133.50
2023-02-02T11:04:14.357Z,100133.34
2023-02-02T11:08:26.913Z,100130.62
2023-02-02T11:12:40.864Z,100130.72
2023-02-02T11:16:46.621Z,100120.47
2023-02-02T11:21:02.997Z,100120.22
2023-02-02T11:25:32.690Z,100125.47
2023-02-02T11:30:42.774Z,100116.59
2023-02-02T11:35:13.166Z,100105.59
2023-02-02T11:40:02.749Z,100111.66
2023-02-02T11:44:45.839Z,100107.78
2023-02-02T11:49:06.680Z,100121.06
2023-02-02T11:53:48.168Z,100114.44
2023-02-02T11:58:20.009Z,100116.50
2023-02-02T12:02:28.428Z,100126.06
2023-02-02T12:06:33.660Z,100115.25
2023-02-02T12:11:02.159Z,100115.41
2023-02-02T12:15:35.584Z,100107.38
2023-02-02T12:20:27.127Z,100107.25
2023-02-02T12:25:15.379Z,100101.97
2023-02-02T12:29:33.890Z,100110.28
2023-02-02T12:34:11.655Z,100114.78
2023-02-02T12:38:45.845Z,100104.72
2023-02-02T12:42:56.421Z,100104.91
2023-02-02T12:47:32.517Z,100105.47
2023-02-02T12:52:02.976Z,100101.41
2023-02-02T12:56:37.807Z,100102.53
2023-02-02T13:01:31.868Z,100093.81
2023-02-02T13:06:01.706Z,100099.38
2023-02-02T13:10:21.726Z,100101.84
2023-02-02T13:14:32.909Z,100105.59
2023-02-02T13:18:52.153Z,100101.16
2023-02-02T13:22:59.177Z,100107.25
2023-02-02T13:27:06.250Z,100116.03
2023-02-02T13:31:35.768Z,100122.37
2023-02-02T13:35:47.183Z,100124.28
2023-02-02T13:40:04.298Z,100118.56
2023-02-02T13:44:16.683Z,100120.50
2023-02-02T13:48:30.355Z,100130.03
2023-02-02T13:52:50.512Z,100129.59
2023-02-02T13:57:24.331Z,100135.81
2023-02-02T14:01:27.553Z,100137.41
2023-02-02T14:05:34.661Z,100134.50
2023-02-02T14:09:38.352Z,100142.50
2023-02-02T14:14:06.737Z,100139.75
2023-02-02T14:18:09.562Z,100147.88
2023-02-02T14:22:12.563Z,100145.09
2023-02-02T14:26:19.869Z,100151.41
2023-02-02T14:30:28.810Z,100151.41
2023-02-02T14:34:35.886Z,100156.78
2023-02-02T14:39:08.960Z,100164.88
2023-02-02T14:43:30.013Z,100164.88
2023-02-02T14:48:09.450Z,100182.25
2023-02-02T14:52:23.461Z,100180.97
2023-02-02T14:56:39.965Z,100176.13
2023-02-02T15:00:45.071Z,100177.97
2023-02-02T15:04:48.494Z,100181.47
2023-02-02T15:09:29.285Z,100188.41
2023-02-02T15:13:37.814Z,100184.44
2023-02-02T15:17:40.764Z,100196.50
2023-02-02T15:21:46.284Z,100195.94
2023-02-02T15:26:20.283Z,100199.25
2023-02-02T15:30:24.771Z,100210.19
2023-02-02T15:34:39.518Z,100212.44
2023-02-02T15:38:43.510Z,100217.66
2023-02-02T15:42:53.137Z,100216.75
